createdAt,value
2022-08-22T00:00:02.000Z,46.72
2022-08-22T00:01:06.000Z,46.91
2022-08-22T00:02:12.000Z,46.76
2022-08-22T00:03:14.000Z,46.45
2022-08-22T00:04:11.000Z,47.15
2022-08-22T00:05:03.000Z,47.70
2022-08-22T00:06:04.000Z,47.45
2022-08-22T00:07:05.000Z,47.37
2022-08-22T00:08:06.000Z,47.34
2022-08-22T00:09:08.000Z,46.55
2022-08-22T00:10:05.000Z,46.65
2022-08-22T00:11:15.000Z,46.68
2022-08-22T00:12:02.000Z,47.39
2022-08-22T00:13:02.000Z,47.45
2022-08-22T00:14:12.000Z,47.16
2022-08-22T00:14:59.000Z,47.11
2022-08-22T00:16:02.000Z,47.36
2022-08-22T00:17:15.000Z,47.28
2022-08-22T00:18:10.000Z,47.14
2022-08-22T00:19:06.000Z,46.83
2022-08-22T00:20:02.000Z,46.64
2022-08-22T00:21:04.000Z,46.83
2022-08-22T00:22:05.000Z,46.69
2022-08-22T00:23:02.000Z,46.36
2022-08-22T00:24:02.000Z,46.47
2022-08-22T00:25:02.000Z,46.52
2022-08-22T00:26:11.000Z,46.31
2022-08-22T00:26:58.000Z,46.54
2022-08-22T00:27:57.000Z,46.56
2022-08-22T00:29:00.000Z,46.73
2022-08-22T00:30:12.000Z,47.28
2022-08-22T00:31:00.000Z,47.31
2022-08-22T00:32:05.000Z,47.44
2022-08-22T00:32:57.000Z,46.89
2022-08-22T00:34:01.000Z,47.08
2022-08-22T00:35:00.000Z,47.46
2022-08-22T00:36:05.000Z,47.42
2022-08-22T00:37:07.000Z,46.95
2022-08-22T00:38:03.000Z,46.61
2022-08-22T00:39:14.000Z,46.91
2022-08-22T00:40:00.000Z,47.43
2022-08-22T00:41:02.000Z,46.86
2022-08-22T00:42:11.000Z,46.82
2022-08-22T00:43:12.000Z,46.75
2022-08-22T00:44:02.000Z,46.73
2022-08-22T00:45:02.000Z,46.59
2022-08-22T00:46:06.000Z,46.90
2022-08-22T00:47:02.000Z,46.59
2022-08-22T00:48:06.000Z,46.81
2022-08-22T00:49:02.000Z,47.59
2022-08-22T00:50:02.000Z,47.52
2022-08-22T00:51:02.000Z,47.22
2022-08-22T00:52:13.000Z,46.84
2022-08-22T00:53:02.000Z,46.99
2022-08-22T00:54:11.000Z,47.20
2022-08-22T00:55:06.000Z,47.86
2022-08-22T00:56:14.000Z,47.88
2022-08-22T00:57:02.000Z,47.79
2022-08-22T00:58:13.000Z,47.92
2022-08-22T00:59:06.000Z,48.23
2022-08-22T01:00:15.000Z,47.80
2022-08-22T01:00:56.000Z,47.79
2022-08-22T01:02:08.000Z,47.79
2022-08-22T01:03:06.000Z,47.53
2022-08-22T01:04:07.000Z,47.63
2022-08-22T01:05:12.000Z,47.82
2022-08-22T01:06:15.000Z,47.49
2022-08-22T01:07:06.000Z,47.30
2022-08-22T01:08:12.000Z,47.30
2022-08-22T01:09:10.000Z,47.43
2022-08-22T01:10:25.000Z,47.18
2022-08-22T01:11:04.000Z,47.25
2022-08-22T01:12:23.000Z,47.02
2022-08-22T01:13:06.000Z,47.09
2022-08-22T01:14:02.000Z,46.96
2022-08-22T01:14:57.000Z,47.58
2022-08-22T01:16:08.000Z,47.29
2022-08-22T01:17:23.000Z,47.70
2022-08-22T01:18:02.000Z,47.34
2022-08-22T01:19:09.000Z,47.30
2022-08-22T01:20:08.000Z,47.04
2022-08-22T01:21:02.000Z,47.11
2022-08-22T01:22:07.000Z,47.18
2022-08-22T01:23:10.000Z,47.13
2022-08-22T01:24:02.000Z,47.70
2022-08-22T01:25:07.000Z,47.49
2022-08-22T01:26:09.000Z,47.16
2022-08-22T01:27:02.000Z,47.23
2022-08-22T01:28:18.000Z,47.31
2022-08-22T01:29:15.000Z,47.64
2022-08-22T01:30:12.000Z,47.46
2022-08-22T01:31:02.000Z,47.64
2022-08-22T01:32:27.000Z,47.49
2022-08-22T01:33:08.000Z,47.62
2022-08-22T01:34:02.000Z,47.47
2022-08-22T01:35:11.000Z,47.48
2022-08-22T01:36:22.000Z,47.46
2022-08-22T01:37:01.000Z,47.29
2022-08-22T01:38:01.000Z,47.50
2022-08-22T01:39:16.000Z,47.69
2022-08-22T01:40:05.000Z,48.01
2022-08-22T01:41:17.000Z,47.53
2022-08-22T01:42:01.000Z,48.15
2022-08-22T01:43:01.000Z,48.17
2022-08-22T01:44:01.000Z,48.46
2022-08-22T01:45:02.000Z,48.44
2022-08-22T01:46:12.000Z,48.56
2022-08-22T01:47:00.000Z,48.45
2022-08-22T01:48:02.000Z,48.44
2022-08-22T01:49:03.000Z,48.81
2022-08-22T01:50:07.000Z,48.92
2022-08-22T01:51:09.000Z,48.80
2022-08-22T01:52:00.000Z,48.36
2022-08-22T01:53:01.000Z,48.55
2022-08-22T01:54:03.000Z,48.81
2022-08-22T01:55:16.000Z,48.43
2022-08-22T01:56:14.000Z,48.37
2022-08-22T01:56:59.000Z,48.38
2022-08-22T01:57:57.000Z,48.75
2022-08-22T01:58:59.000Z,48.74
2022-08-22T01:59:58.000Z,48.70
2022-08-22T02:01:01.000Z,49.27
2022-08-22T02:02:12.000Z,49.14
2022-08-22T02:03:01.000Z,48.53
2022-08-22T02:04:17.000Z,49.14
2022-08-22T02:05:04.000Z,49.23
2022-08-22T02:06:00.000Z,48.82
2022-08-22T02:07:01.000Z,49.22
2022-08-22T02:08:03.000Z,49.09
2022-08-22T02:09:02.000Z,48.60
2022-08-22T02:10:15.000Z,49.24
2022-08-22T02:11:11.000Z,48.88
2022-08-22T02:12:03.000Z,48.52
2022-08-22T02:13:01.000Z,49.54
2022-08-22T02:14:01.000Z,49.91
2022-08-22T02:15:12.000Z,50.04
2022-08-22T02:16:04.000Z,49.78
2022-08-22T02:17:10.000Z,49.91
2022-08-22T02:18:02.000Z,50.17
2022-08-22T02:19:08.000Z,50.11
2022-08-22T02:20:04.000Z,50.17
2022-08-22T02:21:02.000Z,50.04
2022-08-22T02:22:03.000Z,49.59
2022-08-22T02:22:58.000Z,49.92
2022-08-22T02:23:59.000Z,49.58
2022-08-22T02:25:01.000Z,49.60
2022-08-22T02:26:12.000Z,49.46
2022-08-22T02:27:05.000Z,49.26
2022-08-22T02:28:04.000Z,49.38
2022-08-22T02:29:01.000Z,49.21
2022-08-22T02:30:03.000Z,49.44
2022-08-22T02:31:04.000Z,49.28
2022-08-22T02:32:00.000Z,49.30
2022-08-22T02:33:20.000Z,49.35
2022-08-22T02:33:55.000Z,49.67
2022-08-22T02:35:04.000Z,49.50
2022-08-22T02:36:01.000Z,49.71
2022-08-22T02:37:03.000Z,49.40
2022-08-22T02:38:15.000Z,49.35
2022-08-22T02:39:02.000Z,49.77
2022-08-22T02:40:04.000Z,49.57
2022-08-22T02:41:02.000Z,49.28
2022-08-22T02:41:57.000Z,49.64
2022-08-22T02:43:01.000Z,49.67
2022-08-22T02:43:57.000Z,49.65
2022-08-22T02:45:02.000Z,49.84
2022-08-22T02:46:03.000Z,49.95
2022-08-22T02:47:12.000Z,50.02
2022-08-22T02:48:09.000Z,49.53
2022-08-22T02:49:02.000Z,49.74
2022-08-22T02:50:02.000Z,49.43
2022-08-22T02:51:06.000Z,50.02
2022-08-22T02:52:04.000Z,49.96
2022-08-22T02:53:01.000Z,50.28
2022-08-22T02:54:02.000Z,49.99
2022-08-22T02:55:02.000Z,49.99
2022-08-22T02:56:03.000Z,49.78
2022-08-22T02:57:11.000Z,49.88
2022-08-22T02:58:12.000Z,49.86
2022-08-22T02:59:12.000Z,49.63
2022-08-22T03:00:02.000Z,49.70
2022-08-22T03:01:12.000Z,49.69
2022-08-22T03:01:54.000Z,49.72
2022-08-22T03:03:15.000Z,49.53
2022-08-22T03:04:12.000Z,49.91
2022-08-22T03:04:59.000Z,49.70
2022-08-22T03:05:59.000Z,50.02
2022-08-22T03:07:12.000Z,50.27
2022-08-22T03:08:27.000Z,49.64
2022-08-22T03:09:04.000Z,50.29
2022-08-22T03:10:01.000Z,49.81
2022-08-22T03:11:14.000Z,49.57
2022-08-22T03:12:04.000Z,49.83
2022-08-22T03:13:02.000Z,49.58
2022-08-22T03:14:09.000Z,49.64
2022-08-22T03:15:00.000Z,49.97
2022-08-22T03:15:57.000Z,49.42
2022-08-22T03:17:01.000Z,49.75
2022-08-22T03:18:14.000Z,50.05
2022-08-22T03:19:00.000Z,49.79
2022-08-22T03:20:02.000Z,49.34
2022-08-22T03:21:02.000Z,49.60
2022-08-22T03:22:01.000Z,49.78
2022-08-22T03:23:00.000Z,49.72
2022-08-22T03:24:09.000Z,49.77
2022-08-22T03:25:16.000Z,50.18
2022-08-22T03:26:01.000Z,49.61
2022-08-22T03:27:02.000Z,50.07
2022-08-22T03:28:12.000Z,50.08
2022-08-22T03:28:59.000Z,49.82
2022-08-22T03:29:56.000Z,50.19
2022-08-22T03:31:12.000Z,50.21
2022-08-22T03:32:06.000Z,50.29
2022-08-22T03:33:12.000Z,50.29
2022-08-22T03:34:01.000Z,50.17
2022-08-22T03:35:01.000Z,49.82
2022-08-22T03:36:01.000Z,50.11
2022-08-22T03:37:04.000Z,49.89
2022-08-22T03:38:06.000Z,50.27
2022-08-22T03:39:01.000Z,49.91
2022-08-22T03:40:01.000Z,49.75
2022-08-22T03:41:06.000Z,49.85
2022-08-22T03:42:16.000Z,49.83
2022-08-22T03:43:13.000Z,50.29
2022-08-22T03:44:01.000Z,50.10
2022-08-22T03:45:15.000Z,49.88
2022-08-22T03:46:20.000Z,50.49
2022-08-22T03:47:01.000Z,50.46
2022-08-22T03:48:08.000Z,50.16
2022-08-22T03:49:08.000Z,50.07
2022-08-22T03:50:11.000Z,50.67
2022-08-22T03:51:01.000Z,50.49
2022-08-22T03:52:15.000Z,50.14
2022-08-22T03:53:06.000Z,50.09
2022-08-22T03:54:02.000Z,50.60
2022-08-22T03:55:07.000Z,50.70
2022-08-22T03:56:01.000Z,50.77
2022-08-22T03:57:01.000Z,50.51
2022-08-22T03:58:26.000Z,50.54
2022-08-22T03:59:21.000Z,50.73
2022-08-22T04:00:01.000Z,50.43
2022-08-22T04:01:02.000Z,51.32
2022-08-22T04:02:15.000Z,51.25
2022-08-22T04:03:27.000Z,51.08
2022-08-22T04:04:14.000Z,50.93
2022-08-22T04:05:12.000Z,50.76
2022-08-22T04:06:02.000Z,51.06
2022-08-22T04:07:14.000Z,50.79
2022-08-22T04:08:03.000Z,51.24
2022-08-22T04:09:01.000Z,51.37
2022-08-22T04:10:01.000Z,51.84
2022-08-22T04:11:14.000Z,51.76
2022-08-22T04:12:15.000Z,51.50
2022-08-22T04:13:01.000Z,52.27
2022-08-22T04:14:16.000Z,52.61
2022-08-22T04:15:13.000Z,52.24
2022-08-22T04:16:01.000Z,52.28
2022-08-22T04:17:03.000Z,52.14
2022-08-22T04:18:01.000Z,52.14
2022-08-22T04:19:11.000Z,52.46
2022-08-22T04:20:18.000Z,52.02
2022-08-22T04:21:03.000Z,52.12
2022-08-22T04:22:12.000Z,52.13
2022-08-22T04:23:01.000Z,51.93
2022-08-22T04:24:14.000Z,52.38
2022-08-22T04:25:01.000Z,52.53
2022-08-22T04:26:00.000Z,52.51
2022-08-22T04:27:03.000Z,52.29
2022-08-22T04:28:04.000Z,52.36
2022-08-22T04:29:01.000Z,52.74
2022-08-22T04:30:00.000Z,52.24
2022-08-22T04:31:03.000Z,51.92
2022-08-22T04:32:01.000Z,51.99
2022-08-22T04:33:03.000Z,52.22
2022-08-22T04:34:15.000Z,52.47
2022-08-22T04:35:03.000Z,52.47
2022-08-22T04:36:01.000Z,52.03
2022-08-22T04:36:57.000Z,52.04
2022-08-22T04:38:14.000Z,52.49
2022-08-22T04:38:59.000Z,52.25
2022-08-22T04:40:15.000Z,51.99
2022-08-22T04:40:59.000Z,52.10
2022-08-22T04:42:00.000Z,52.26
2022-08-22T04:42:59.000Z,52.92
2022-08-22T04:43:59.000Z,52.51
2022-08-22T04:45:04.000Z,52.39
2022-08-22T04:46:01.000Z,53.18
2022-08-22T04:47:00.000Z,52.91
2022-08-22T04:48:03.000Z,52.56
2022-08-22T04:49:12.000Z,52.78
2022-08-22T04:50:03.000Z,52.87
2022-08-22T04:51:01.000Z,53.21
2022-08-22T04:52:08.000Z,53.33
2022-08-22T04:53:07.000Z,53.00
2022-08-22T04:54:14.000Z,52.69
2022-08-22T04:55:01.000Z,53.09
2022-08-22T04:56:04.000Z,53.07
2022-08-22T04:57:01.000Z,53.08
2022-08-22T04:58:14.000Z,52.79
2022-08-22T04:58:58.000Z,52.90
2022-08-22T04:59:57.000Z,53.20
2022-08-22T05:01:01.000Z,52.65
2022-08-22T05:01:58.000Z,53.46
2022-08-22T05:02:55.000Z,53.03
2022-08-22T05:04:03.000Z,52.68
2022-08-22T05:05:00.000Z,53.17
2022-08-22T05:05:53.000Z,53.21
2022-08-22T05:07:01.000Z,53.15
2022-08-22T05:07:58.000Z,52.93
2022-08-22T05:08:54.000Z,52.72
2022-08-22T05:10:16.000Z,53.28
2022-08-22T05:10:53.000Z,52.63
2022-08-22T05:11:55.000Z,52.40
2022-08-22T05:12:56.000Z,52.22
2022-08-22T05:13:56.000Z,52.65
2022-08-22T05:15:00.000Z,52.63
2022-08-22T05:15:58.000Z,52.53
2022-08-22T05:16:55.000Z,52.53
2022-08-22T05:17:56.000Z,52.89
2022-08-22T05:19:04.000Z,52.65
2022-08-22T05:20:01.000Z,52.51
2022-08-22T05:20:54.000Z,52.25
2022-08-22T05:21:52.000Z,52.26
2022-08-22T05:23:06.000Z,52.25
2022-08-22T05:24:00.000Z,52.25
2022-08-22T05:24:58.000Z,52.42
2022-08-22T05:25:57.000Z,52.09
2022-08-22T05:26:56.000Z,52.23
2022-08-22T05:28:00.000Z,52.30
2022-08-22T05:28:59.000Z,51.90
2022-08-22T05:30:00.000Z,52.19
2022-08-22T05:30:52.000Z,52.60
2022-08-22T05:32:04.000Z,52.32
2022-08-22T05:33:02.000Z,52.20
2022-08-22T05:34:00.000Z,52.60
2022-08-22T05:34:57.000Z,52.67
2022-08-22T05:36:02.000Z,52.48
2022-08-22T05:37:06.000Z,52.31
2022-08-22T05:37:53.000Z,52.44
2022-08-22T05:39:03.000Z,52.60
2022-08-22T05:39:58.000Z,52.35
2022-08-22T05:40:58.000Z,52.15
2022-08-22T05:41:58.000Z,52.04
2022-08-22T05:42:54.000Z,52.11
2022-08-22T05:43:52.000Z,52.05
2022-08-22T05:44:53.000Z,52.24
2022-08-22T05:45:55.000Z,52.37
2022-08-22T05:46:59.000Z,51.98
2022-08-22T05:48:01.000Z,52.14
2022-08-22T05:48:57.000Z,52.35
2022-08-22T05:50:02.000Z,52.16
2022-08-22T05:50:55.000Z,52.04
2022-08-22T05:52:04.000Z,52.08
2022-08-22T05:53:07.000Z,52.45
2022-08-22T05:54:06.000Z,52.18
2022-08-22T05:55:00.000Z,51.85
2022-08-22T05:56:08.000Z,52.15
2022-08-22T05:57:01.000Z,52.23
2022-08-22T05:58:11.000Z,52.14
2022-08-22T05:59:17.000Z,52.27
2022-08-22T06:00:00.000Z,51.89
2022-08-22T06:01:01.000Z,52.35
2022-08-22T06:02:15.000Z,52.40
2022-08-22T06:03:02.000Z,52.35
2022-08-22T06:04:04.000Z,52.63
2022-08-22T06:04:57.000Z,52.28
2022-08-22T06:05:55.000Z,52.22
2022-08-22T06:07:00.000Z,52.40
2022-08-22T06:08:01.000Z,52.33
2022-08-22T06:09:02.000Z,52.26
2022-08-22T06:10:02.000Z,52.14
2022-08-22T06:10:57.000Z,51.94
2022-08-22T06:12:02.000Z,52.18
2022-08-22T06:13:01.000Z,52.07
2022-08-22T06:14:03.000Z,51.93
2022-08-22T06:15:03.000Z,52.04
2022-08-22T06:16:08.000Z,51.89
2022-08-22T06:17:03.000Z,52.06
2022-08-22T06:18:01.000Z,52.02
2022-08-22T06:18:53.000Z,51.90
2022-08-22T06:19:52.000Z,51.82
2022-08-22T06:20:55.000Z,51.74
2022-08-22T06:21:53.000Z,51.73
2022-08-22T06:22:59.000Z,51.84
2022-08-22T06:23:59.000Z,51.63
2022-08-22T06:24:59.000Z,51.44
2022-08-22T06:25:55.000Z,51.15
2022-08-22T06:26:57.000Z,51.50
2022-08-22T06:27:53.000Z,51.31
2022-08-22T06:28:56.000Z,51.27
2022-08-22T06:29:56.000Z,51.17
2022-08-22T06:30:55.000Z,51.10
2022-08-22T06:31:52.000Z,51.11
2022-08-22T06:32:56.000Z,51.18
2022-08-22T06:34:00.000Z,51.24
2022-08-22T06:34:58.000Z,51.05
2022-08-22T06:36:05.000Z,51.35
2022-08-22T06:36:55.000Z,51.11
2022-08-22T06:37:56.000Z,51.13
2022-08-22T06:38:58.000Z,50.99
2022-08-22T06:39:53.000Z,50.89
2022-08-22T06:40:54.000Z,50.95
2022-08-22T06:42:03.000Z,51.07
2022-08-22T06:42:53.000Z,51.17
2022-08-22T06:43:53.000Z,51.26
2022-08-22T06:44:59.000Z,51.47
2022-08-22T06:45:51.000Z,51.07
2022-08-22T06:46:56.000Z,51.10
2022-08-22T06:48:11.000Z,51.25
2022-08-22T06:48:54.000Z,51.18
2022-08-22T06:49:56.000Z,50.93
2022-08-22T06:50:55.000Z,51.02
2022-08-22T06:51:57.000Z,50.89
2022-08-22T06:52:59.000Z,51.22
2022-08-22T06:53:58.000Z,51.15
2022-08-22T06:55:01.000Z,51.13
2022-08-22T06:55:57.000Z,50.94
2022-08-22T06:56:53.000Z,51.24
2022-08-22T06:57:56.000Z,51.50
2022-08-22T06:58:56.000Z,51.15
2022-08-22T06:59:53.000Z,50.98
2022-08-22T07:00:56.000Z,51.07
2022-08-22T07:02:14.000Z,51.35
2022-08-22T07:02:56.000Z,51.07
2022-08-22T07:03:56.000Z,50.95
2022-08-22T07:04:51.000Z,50.99
2022-08-22T07:05:53.000Z,51.13
2022-08-22T07:06:53.000Z,51.12
2022-08-22T07:07:52.000Z,50.98
2022-08-22T07:08:52.000Z,50.89
2022-08-22T07:09:54.000Z,50.89
2022-08-22T07:11:01.000Z,51.17
2022-08-22T07:11:54.000Z,50.94
2022-08-22T07:12:54.000Z,50.95
2022-08-22T07:13:58.000Z,50.74
2022-08-22T07:14:59.000Z,50.67
2022-08-22T07:15:56.000Z,50.48
2022-08-22T07:16:58.000Z,50.29
2022-08-22T07:17:57.000Z,50.21
2022-08-22T07:18:52.000Z,50.29
2022-08-22T07:20:00.000Z,50.24
2022-08-22T07:20:55.000Z,49.94
2022-08-22T07:21:52.000Z,49.94
2022-08-22T07:22:56.000Z,50.05
2022-08-22T07:23:53.000Z,49.95
2022-08-22T07:24:56.000Z,49.86
2022-08-22T07:26:12.000Z,49.63
2022-08-22T07:27:11.000Z,49.39
2022-08-22T07:28:10.000Z,49.30
2022-08-22T07:28:57.000Z,49.17
2022-08-22T07:30:03.000Z,49.03
2022-08-22T07:30:59.000Z,49.01
2022-08-22T07:32:12.000Z,49.26
2022-08-22T07:32:59.000Z,49.14
2022-08-22T07:33:55.000Z,48.92
2022-08-22T07:35:02.000Z,49.44
2022-08-22T07:35:59.000Z,49.16
2022-08-22T07:36:59.000Z,49.09
2022-08-22T07:38:01.000Z,48.82
2022-08-22T07:39:08.000Z,48.97
2022-08-22T07:40:00.000Z,48.53
2022-08-22T07:41:12.000Z,48.66
2022-08-22T07:42:10.000Z,48.73
2022-08-22T07:43:16.000Z,48.50
2022-08-22T07:44:03.000Z,48.57
2022-08-22T07:45:09.000Z,48.52
2022-08-22T07:45:56.000Z,48.50
2022-08-22T07:46:59.000Z,48.53
2022-08-22T07:48:11.000Z,48.31
2022-08-22T07:48:56.000Z,48.31
2022-08-22T07:50:09.000Z,48.30
2022-08-22T07:51:08.000Z,48.28
2022-08-22T07:51:56.000Z,47.52
2022-08-22T07:53:01.000Z,47.69
2022-08-22T07:53:58.000Z,47.74
2022-08-22T07:55:04.000Z,47.57
2022-08-22T07:55:55.000Z,47.76
2022-08-22T07:57:13.000Z,47.43
2022-08-22T07:57:55.000Z,47.43
2022-08-22T07:58:56.000Z,47.77
2022-08-22T07:59:56.000Z,47.53
2022-08-22T08:00:53.000Z,47.20
2022-08-22T08:01:55.000Z,47.00
2022-08-22T08:02:55.000Z,47.21
2022-08-22T08:04:05.000Z,47.06
2022-08-22T08:04:54.000Z,47.29
2022-08-22T08:05:52.000Z,47.09
2022-08-22T08:06:56.000Z,47.18
2022-08-22T08:07:54.000Z,46.86
2022-08-22T08:08:52.000Z,46.59
2022-08-22T08:09:55.000Z,46.41
2022-08-22T08:10:54.000Z,46.54
2022-08-22T08:11:52.000Z,46.76
2022-08-22T08:12:58.000Z,46.74
2022-08-22T08:13:57.000Z,46.44
2022-08-22T08:14:53.000Z,46.38
2022-08-22T08:15:52.000Z,46.89
2022-08-22T08:17:05.000Z,46.47
2022-08-22T08:18:00.000Z,46.46
2022-08-22T08:18:55.000Z,46.22
2022-08-22T08:19:54.000Z,46.64
2022-08-22T08:20:57.000Z,46.64
2022-08-22T08:21:55.000Z,46.37
2022-08-22T08:22:54.000Z,46.75
2022-08-22T08:23:53.000Z,46.29
2022-08-22T08:24:55.000Z,46.22
2022-08-22T08:25:59.000Z,45.45
2022-08-22T08:27:00.000Z,45.71
2022-08-22T08:27:58.000Z,45.86
2022-08-22T08:28:55.000Z,45.64
2022-08-22T08:29:59.000Z,45.78
2022-08-22T08:30:55.000Z,45.19
2022-08-22T08:31:52.000Z,45.17
2022-08-22T08:32:56.000Z,45.21
2022-08-22T08:34:12.000Z,44.88
2022-08-22T08:34:52.000Z,44.74
2022-08-22T08:36:02.000Z,44.90
2022-08-22T08:37:09.000Z,44.54
2022-08-22T08:38:02.000Z,44.70
2022-08-22T08:39:01.000Z,44.88
2022-08-22T08:39:57.000Z,44.67
2022-08-22T08:41:02.000Z,44.56
2022-08-22T08:42:05.000Z,44.51
2022-08-22T08:43:10.000Z,44.64
2022-08-22T08:44:12.000Z,44.09
2022-08-22T08:45:12.000Z,44.09
2022-08-22T08:46:02.000Z,44.02
2022-08-22T08:47:19.000Z,43.84
2022-08-22T08:48:01.000Z,43.18
2022-08-22T08:49:01.000Z,43.44
2022-08-22T08:50:01.000Z,43.43
2022-08-22T08:51:11.000Z,43.56
2022-08-22T08:52:12.000Z,43.71
2022-08-22T08:53:01.000Z,42.56
2022-08-22T08:54:01.000Z,42.74
2022-08-22T08:55:04.000Z,42.92
2022-08-22T08:56:00.000Z,42.55
2022-08-22T08:57:01.000Z,42.58
2022-08-22T08:58:01.000Z,42.68
2022-08-22T08:59:02.000Z,42.98
2022-08-22T09:00:02.000Z,43.01
2022-08-22T09:01:05.000Z,43.08
2022-08-22T09:02:04.000Z,42.78
2022-08-22T09:03:11.000Z,42.63
2022-08-22T09:04:25.000Z,42.08
2022-08-22T09:05:17.000Z,42.38
2022-08-22T09:06:07.000Z,42.04
2022-08-22T09:07:02.000Z,41.76
2022-08-22T09:08:40.000Z,41.80
2022-08-22T09:09:34.000Z,42.04
2022-08-22T09:10:01.000Z,42.08
2022-08-22T09:11:22.000Z,42.18
2022-08-22T09:12:01.000Z,42.39
2022-08-22T09:13:15.000Z,42.37
2022-08-22T09:14:15.000Z,42.00
2022-08-22T09:15:14.000Z,41.51
2022-08-22T09:16:02.000Z,40.97
2022-08-22T09:17:01.000Z,40.97
2022-08-22T09:18:02.000Z,41.26
2022-08-22T09:19:09.000Z,41.37
2022-08-22T09:20:14.000Z,41.65
2022-08-22T09:21:18.000Z,41.28
2022-08-22T09:22:29.000Z,41.32
2022-08-22T09:23:01.000Z,41.50
2022-08-22T09:24:20.000Z,40.89
2022-08-22T09:25:15.000Z,40.69
2022-08-22T09:26:03.000Z,40.89
2022-08-22T09:26:58.000Z,41.16
2022-08-22T09:28:00.000Z,40.57
2022-08-22T09:29:01.000Z,40.14
2022-08-22T09:30:00.000Z,40.51
2022-08-22T09:31:05.000Z,40.65
2022-08-22T09:32:16.000Z,40.95
2022-08-22T09:33:01.000Z,40.30
2022-08-22T09:34:06.000Z,40.41
2022-08-22T09:35:01.000Z,40.29
2022-08-22T09:36:05.000Z,39.97
2022-08-22T09:37:01.000Z,39.66
2022-08-22T09:38:11.000Z,39.83
2022-08-22T09:38:56.000Z,40.19
2022-08-22T09:40:16.000Z,39.76
2022-08-22T09:41:08.000Z,39.52
2022-08-22T09:42:03.000Z,39.82
2022-08-22T09:43:22.000Z,40.19
2022-08-22T09:44:01.000Z,40.02
2022-08-22T09:45:24.000Z,40.06
2022-08-22T09:46:01.000Z,39.12
2022-08-22T09:47:11.000Z,38.87
2022-08-22T09:47:59.000Z,39.37
2022-08-22T09:49:01.000Z,39.27
2022-08-22T09:50:14.000Z,39.08
2022-08-22T09:51:01.000Z,38.95
2022-08-22T09:52:03.000Z,38.91
2022-08-22T09:53:02.000Z,39.16
2022-08-22T09:54:01.000Z,38.77
2022-08-22T09:55:01.000Z,38.56
2022-08-22T09:56:05.000Z,37.71
2022-08-22T09:57:14.000Z,38.00
2022-08-22T09:58:02.000Z,38.49
2022-08-22T09:59:13.000Z,38.88
2022-08-22T10:00:10.000Z,37.99
2022-08-22T10:00:59.000Z,38.48
2022-08-22T10:02:01.000Z,37.60
2022-08-22T10:03:02.000Z,37.37
2022-08-22T10:04:03.000Z,37.73
2022-08-22T10:05:01.000Z,37.77
2022-08-22T10:06:01.000Z,37.23
2022-08-22T10:07:08.000Z,37.15
2022-08-22T10:08:00.000Z,37.03
2022-08-22T10:09:01.000Z,37.05
2022-08-22T10:10:01.000Z,37.11
2022-08-22T10:11:05.000Z,37.28
2022-08-22T10:12:00.000Z,37.24
2022-08-22T10:13:01.000Z,36.85
2022-08-22T10:14:04.000Z,36.70
2022-08-22T10:15:01.000Z,37.03
2022-08-22T10:16:02.000Z,36.80
2022-08-22T10:17:07.000Z,36.52
2022-08-22T10:18:12.000Z,36.77
2022-08-22T10:19:07.000Z,36.75
2022-08-22T10:20:16.000Z,36.71
2022-08-22T10:21:10.000Z,36.71
2022-08-22T10:22:01.000Z,36.75
2022-08-22T10:23:05.000Z,36.19
2022-08-22T10:23:59.000Z,36.07
2022-08-22T10:25:12.000Z,35.39
2022-08-22T10:26:01.000Z,35.18
2022-08-22T10:26:54.000Z,34.91
2022-08-22T10:28:02.000Z,34.39
2022-08-22T10:29:12.000Z,33.84
2022-08-22T10:30:05.000Z,34.07
2022-08-22T10:31:04.000Z,34.82
2022-08-22T10:31:56.000Z,34.59
2022-08-22T10:33:01.000Z,35.46
2022-08-22T10:34:03.000Z,35.27
2022-08-22T10:34:57.000Z,34.88
2022-08-22T10:36:02.000Z,34.58
2022-08-22T10:37:02.000Z,34.46
2022-08-22T10:37:59.000Z,34.13
2022-08-22T10:38:57.000Z,34.11
2022-08-22T10:40:04.000Z,33.92
2022-08-22T10:41:01.000Z,33.58
2022-08-22T10:42:00.000Z,33.10
2022-08-22T10:43:04.000Z,33.37
2022-08-22T10:44:10.000Z,33.00
2022-08-22T10:45:16.000Z,32.93
2022-08-22T10:46:01.000Z,33.34
2022-08-22T10:47:01.000Z,33.99
2022-08-22T10:48:21.000Z,34.36
2022-08-22T10:48:58.000Z,33.94
2022-08-22T10:49:55.000Z,33.56
2022-08-22T10:51:02.000Z,33.61
2022-08-22T10:52:01.000Z,34.04
2022-08-22T10:53:26.000Z,33.75
2022-08-22T10:54:11.000Z,33.25
2022-08-22T10:55:00.000Z,33.51
2022-08-22T10:56:01.000Z,33.82
2022-08-22T10:57:01.000Z,33.54
2022-08-22T10:58:09.000Z,33.10
2022-08-22T10:59:13.000Z,33.12
2022-08-22T11:00:11.000Z,33.72
2022-08-22T11:00:57.000Z,33.50
2022-08-22T11:02:05.000Z,33.41
2022-08-22T11:03:20.000Z,32.73
2022-08-22T11:04:01.000Z,32.56
2022-08-22T11:05:14.000Z,32.52
2022-08-22T11:05:57.000Z,32.30
2022-08-22T11:07:15.000Z,31.95
2022-08-22T11:08:01.000Z,31.35
2022-08-22T11:09:11.000Z,31.91
2022-08-22T11:10:03.000Z,31.89
2022-08-22T11:11:04.000Z,31.45
2022-08-22T11:12:01.000Z,30.43
2022-08-22T11:13:18.000Z,30.07
2022-08-22T11:14:17.000Z,30.22
2022-08-22T11:15:14.000Z,30.46
2022-08-22T11:16:05.000Z,30.54
2022-08-22T11:17:01.000Z,31.32
2022-08-22T11:18:03.000Z,31.20
2022-08-22T11:19:13.000Z,31.25
2022-08-22T11:20:02.000Z,30.69
2022-08-22T11:21:02.000Z,31.03
2022-08-22T11:22:14.000Z,30.95
2022-08-22T11:23:13.000Z,31.10
2022-08-22T11:24:11.000Z,31.05
2022-08-22T11:25:04.000Z,31.35
2022-08-22T11:26:02.000Z,31.25
2022-08-22T11:27:01.000Z,31.59
2022-08-22T11:28:01.000Z,30.69
2022-08-22T11:29:01.000Z,30.97
2022-08-22T11:30:05.000Z,30.93
2022-08-22T11:31:01.000Z,30.52
2022-08-22T11:32:03.000Z,30.18
2022-08-22T11:33:12.000Z,30.41
2022-08-22T11:34:02.000Z,30.95
2022-08-22T11:35:01.000Z,29.94
2022-08-22T11:36:02.000Z,29.86
2022-08-22T11:37:03.000Z,30.09
2022-08-22T11:38:01.000Z,30.14
2022-08-22T11:39:02.000Z,30.55
2022-08-22T11:40:09.000Z,30.83
2022-08-22T11:41:06.000Z,30.44
2022-08-22T11:42:14.000Z,30.21
2022-08-22T11:43:05.000Z,30.13
2022-08-22T11:44:02.000Z,30.26
2022-08-22T11:44:59.000Z,30.22
2022-08-22T11:45:56.000Z,30.49
2022-08-22T11:46:55.000Z,30.32
2022-08-22T11:48:08.000Z,30.57
2022-08-22T11:49:20.000Z,30.63
2022-08-22T11:50:01.000Z,30.29
2022-08-22T11:51:11.000Z,30.65
2022-08-22T11:52:12.000Z,30.16
2022-08-22T11:53:09.000Z,30.21
2022-08-22T11:54:11.000Z,29.52
2022-08-22T11:55:11.000Z,28.97
2022-08-22T11:56:06.000Z,29.42
2022-08-22T11:57:16.000Z,29.19
2022-08-22T11:58:04.000Z,29.01
2022-08-22T11:59:03.000Z,29.14
2022-08-22T12:00:09.000Z,29.12
2022-08-22T12:01:01.000Z,28.83
2022-08-22T12:02:00.000Z,29.33
2022-08-22T12:03:01.000Z,29.38
2022-08-22T12:04:14.000Z,29.23
2022-08-22T12:04:57.000Z,30.23
2022-08-22T12:06:11.000Z,29.42
2022-08-22T12:07:11.000Z,29.12
2022-08-22T12:08:02.000Z,29.35
2022-08-22T12:09:01.000Z,29.26
2022-08-22T12:10:08.000Z,28.47
2022-08-22T12:11:11.000Z,29.07
2022-08-22T12:12:01.000Z,29.03
2022-08-22T12:12:58.000Z,29.35
2022-08-22T12:14:01.000Z,29.15
2022-08-22T12:15:01.000Z,28.92
2022-08-22T12:16:11.000Z,28.42
2022-08-22T12:17:14.000Z,28.38
2022-08-22T12:18:15.000Z,28.79
2022-08-22T12:19:06.000Z,28.33
2022-08-22T12:20:01.000Z,27.65
2022-08-22T12:21:11.000Z,28.19
2022-08-22T12:22:11.000Z,28.55
2022-08-22T12:23:01.000Z,28.71
2022-08-22T12:24:09.000Z,28.64
2022-08-22T12:25:01.000Z,28.93
2022-08-22T12:26:10.000Z,28.34
2022-08-22T12:27:06.000Z,27.93
2022-08-22T12:28:12.000Z,27.92
2022-08-22T12:29:01.000Z,27.10
2022-08-22T12:30:08.000Z,28.04
2022-08-22T12:31:01.000Z,27.79
2022-08-22T12:32:22.000Z,28.52
2022-08-22T12:33:01.000Z,28.39
2022-08-22T12:34:14.000Z,28.27
2022-08-22T12:35:10.000Z,28.26
2022-08-22T12:36:02.000Z,28.57
2022-08-22T12:37:00.000Z,28.41
2022-08-22T12:38:15.000Z,27.44
2022-08-22T12:39:11.000Z,28.11
2022-08-22T12:40:13.000Z,27.79
2022-08-22T12:41:11.000Z,28.12
2022-08-22T12:42:01.000Z,27.49
2022-08-22T12:43:04.000Z,26.69
2022-08-22T12:44:01.000Z,26.59
2022-08-22T12:45:01.000Z,26.19
2022-08-22T12:46:01.000Z,26.13
2022-08-22T12:47:01.000Z,26.61
2022-08-22T12:48:11.000Z,27.00
2022-08-22T12:49:01.000Z,26.93
2022-08-22T12:50:16.000Z,27.38
2022-08-22T12:51:02.000Z,27.25
2022-08-22T12:52:18.000Z,26.92